Time;durP1;ratioP1;P1;durP2;ratioP2;P2;SDS_P1;SDS_P2;PMS_P1;PMS_P2;Temp;Humidity;BMP_temperature;BMP_pressure;BME280_temperature;BME280_humidity;BME280_pressure;Samples;Min_cycle;Max_cycle;Signal;HPM_P1;HPM_P2
2022/03/24 00:00:08;;;;;;;357.07;118.93;;;;;;;8.91;37.36;100438.91;341026;29;1843;-68
2022/03/24 00:00:19;;;;;;;358.00;118.38;;;;;;;8.92;37.85;100435.41;340093;29;1232;-68
2022/03/24 00:00:29;;;;;;;356.50;119.80;;;;;;;8.92;38.01;100448.44;341213;29;1213;-68
2022/03/24 00:00:40;;;;;;;354.20;116.13;;;;;;;8.91;37.83;100438.91;343845;28;1293;-69
2022/03/24 00:00:50;;;;;;;356.77;120.27;;;;;;;8.92;37.66;100440.63;342616;28;994;-68
2022/03/24 00:01:00;;;;;;;355.90;118.00;;;;;;;8.92;37.54;100439.75;343808;28;1480;-68
2022/03/24 00:01:11;;;;;;;355.83;118.40;;;;;;;8.94;37.52;100440.59;339895;28;1380;-68
2022/03/24 00:01:21;;;;;;;353.70;114.07;;;;;;;8.92;37.61;100435.41;340615;29;1979;-68
2022/03/24 00:01:32;;;;;;;356.97;114.90;;;;;;;8.93;37.91;100441.47;341274;29;1904;-68
2022/03/24 00:01:42;;;;;;;359.95;115.57;;;;;;;8.93;37.63;100446.69;341300;29;1000;-68
2022/03/24 00:01:53;;;;;;;358.97;113.97;;;;;;;8.93;37.43;100444.94;339871;29;1193;-69
2022/03/24 00:02:03;;;;;;;355.85;115.63;;;;;;;8.92;37.38;100440.63;342594;28;1339;-69
2022/03/24 00:02:14;;;;;;;353.70;116.57;;;;;;;8.92;37.68;100440.63;341277;29;1068;-69
2022/03/24 00:02:24;;;;;;;356.50;118.57;;;;;;;8.89;38.11;100439.81;341335;29;964;-69
2022/03/24 00:02:35;;;;;;;356.27;117.35;;;;;;;8.87;37.98;100442.47;342610;28;956;-68
2022/03/24 00:02:45;;;;;;;356.63;113.33;;;;;;;8.86;37.85;100440.75;342437;28;1832;-68
2022/03/24 00:02:56;;;;;;;354.15;109.43;;;;;;;8.88;38.09;100438.97;341513;28;1666;-68
2022/03/24 00:03:06;;;;;;;354.33;109.80;;;;;;;8.87;37.75;100433.78;343822;28;2324;-68
2022/03/24 00:03:17;;;;;;;355.63;113.50;;;;;;;8.88;37.54;100438.97;343787;28;1033;-68
2022/03/24 00:03:28;;;;;;;357.38;116.70;;;;;;;8.85;37.87;100433.81;343955;28;1394;-68
2022/03/24 00:03:38;;;;;;;358.20;118.50;;;;;;;8.86;38.25;100440.75;343897;28;2065;-68
2022/03/24 00:03:48;;;;;;;358.58;117.55;;;;;;;8.86;37.78;100439.88;342404;28;1757;-68
2022/03/24 00:03:59;;;;;;;357.00;117.97;;;;;;;8.87;37.79;100437.25;341367;29;873;-68
2022/03/24 00:04:09;;;;;;;356.75;115.05;;;;;;;8.87;38.03;100432.03;342525;28;1228;-68
2022/03/24 00:04:20;;;;;;;356.90;114.90;;;;;;;8.85;37.86;100433.81;341873;28;1810;-68
2022/03/24 00:04:30;;;;;;;359.48;115.40;;;;;;;8.86;37.87;100435.53;341478;28;1475;-69
2022/03/24 00:04:41;;;;;;;358.17;117.13;;;;;;;8.86;37.83;100435.53;342503;28;1193;-68
2022/03/24 00:04:51;;;;;;;357.63;115.80;;;;;;;8.88;37.65;100438.09;342384;28;1988;-68
2022/03/24 00:05:01;;;;;;;355.37;113.70;;;;;;;8.88;38.29;100438.09;341339;29;986;-68
2022/03/24 00:05:12;;;;;;;356.38;114.78;;;;;;;8.87;38.13;100432.03;342583;28;1211;-68
2022/03/24 00:05:23;;;;;;;356.27;117.35;;;;;;;8.87;38.25;100434.63;343757;28;1235;-68
2022/03/24 00:05:34;;;;;;;358.70;119.43;;;;;;;8.88;38.08;100431.13;345254;28;1208;-69
2022/03/24 00:05:44;;;;;;;357.15;117.20;;;;;;;8.88;38.01;100438.97;345205;28;1327;-68
2022/03/24 00:05:54;;;;;;;357.23;117.40;;;;;;;8.88;37.82;100438.97;342601;28;1110;-68
2022/03/24 00:06:05;;;;;;;356.57;116.03;;;;;;;8.88;38.10;100438.97;343682;28;1951;-68
2022/03/24 00:06:15;;;;;;;357.42;116.07;;;;;;;8.87;38.05;100429.41;345368;28;880;-68
2022/03/24 00:06:25;;;;;;;357.67;115.97;;;;;;;8.88;38.04;100432.88;344155;28;1229;-68
2022/03/24 00:06:37;;;;;;;357.17;115.53;;;;;;;8.88;37.88;100431.13;343978;28;869;-67
2022/03/24 00:06:47;;;;;;;359.75;118.15;;;;;;;8.87;37.97;100437.25;341388;29;908;-68
2022/03/24 00:06:58;;;;;;;362.10;117.67;;;;;;;8.87;38.08;100433.78;343886;28;940;-67
2022/03/24 00:07:08;;;;;;;362.35;118.82;;;;;;;8.86;38.05;100432.91;343993;28;942;-68
2022/03/24 00:07:18;;;;;;;360.23;117.47;;;;;;;8.86;38.30;100435.53;343838;28;1369;-67
2022/03/24 00:07:29;;;;;;;357.08;115.97;;;;;;;8.85;38.43;100432.94;341241;29;953;-68
2022/03/24 00:07:41;;;;;;;359.57;118.13;;;;;;;8.86;38.49;100434.66;344908;28;1905;-68
2022/03/24 00:07:51;;;;;;;360.05;119.97;;;;;;;8.86;38.59;100432.06;343937;28;885;-68
2022/03/24 00:08:02;;;;;;;360.63;122.60;;;;;;;8.87;37.99;100426.81;343989;28;1207;-68
2022/03/24 00:08:12;;;;;;;359.77;120.93;;;;;;;8.89;38.42;100432.00;343992;28;860;-68
2022/03/24 00:08:23;;;;;;;359.48;122.25;;;;;;;8.86;38.06;100425.09;345037;28;1651;-68
2022/03/24 00:08:33;;;;;;;361.43;122.60;;;;;;;8.84;38.49;100426.88;342618;28;1242;-68
2022/03/24 00:08:43;;;;;;;361.55;123.47;;;;;;;8.85;38.49;100427.72;343842;28;1722;-68
2022/03/24 00:08:54;;;;;;;361.13;120.37;;;;;;;8.86;38.66;100429.44;343925;28;1051;-68
2022/03/24 00:09:04;;;;;;;360.45;119.90;;;;;;;8.83;38.59;100425.16;345889;28;2203;-68
2022/03/24 00:09:15;;;;;;;358.97;117.23;;;;;;;8.83;38.51;100425.16;344331;28;1990;-68
2022/03/24 00:09:25;;;;;;;356.30;115.55;;;;;;;8.84;38.61;100429.47;343789;28;1836;-68
2022/03/24 00:09:35;;;;;;;354.53;111.53;;;;;;;8.83;38.67;100429.50;343216;28;1216;-68
2022/03/24 00:09:46;;;;;;;352.77;109.23;;;;;;;8.82;38.40;100425.19;342287;28;1555;-68
2022/03/24 00:09:56;;;;;;;353.52;109.53;;;;;;;8.82;38.26;100427.78;343972;28;1094;-68
2022/03/24 00:10:07;;;;;;;354.60;111.27;;;;;;;8.77;38.63;100425.25;343926;28;1016;-69
2022/03/24 00:10:17;;;;;;;357.77;116.75;;;;;;;8.78;38.73;100426.13;345280;28;877;-68
2022/03/24 00:10:30;;;;;;;357.90;116.80;;;;;;;8.79;38.43;100427.84;342620;28;848;-68
2022/03/24 00:10:40;;;;;;;358.65;115.03;;;;;;;8.79;38.39;100422.63;343965;28;968;-68
2022/03/24 00:10:50;;;;;;;357.33;115.13;;;;;;;8.79;38.28;100425.22;345180;28;1337;-68
2022/03/24 00:11:01;;;;;;;359.07;118.20;;;;;;;8.79;38.41;100426.09;345255;28;910;-69
2022/03/24 00:11:11;;;;;;;359.00;119.90;;;;;;;8.79;38.66;100423.47;343936;28;1072;-68
2022/03/24 00:11:21;;;;;;;359.02;118.90;;;;;;;8.78;38.35;100421.78;343808;28;990;-68
2022/03/24 00:11:32;;;;;;;356.63;117.17;;;;;;;8.79;38.75;100420.03;342635;28;1333;-69
2022/03/24 00:11:42;;;;;;;357.90;115.63;;;;;;;8.78;38.58;100423.50;339935;29;926;-69
2022/03/24 00:11:53;;;;;;;359.20;116.40;;;;;;;8.78;38.73;100419.16;342571;28;955;-69
2022/03/24 00:12:06;;;;;;;360.86;116.20;;;;;;;8.78;38.83;100421.78;346663;28;872;-69
2022/03/24 00:12:16;;;;;;;359.33;115.82;;;;;;;8.77;38.33;100425.25;343991;28;873;-68
2022/03/24 00:12:27;;;;;;;357.07;115.93;;;;;;;8.75;38.74;100421.81;342720;28;864;-69
2022/03/24 00:12:39;;;;;;;358.02;116.15;;;;;;;8.76;38.43;100423.53;342656;28;923;-70
2022/03/24 00:12:51;;;;;;;358.27;115.25;;;;;;;8.75;39.05;100424.44;342518;28;1537;-68
2022/03/24 00:13:02;;;;;;;357.75;112.50;;;;;;;8.73;38.47;100420.13;341183;28;1292;-68
2022/03/24 00:13:14;;;;;;;358.23;112.03;;;;;;;8.71;38.62;100414.94;342518;28;1751;-68
2022/03/24 00:13:24;;;;;;;359.90;114.13;;;;;;;8.74;38.91;100420.09;341043;28;2144;-68
2022/03/24 00:13:36;;;;;;;361.77;115.78;;;;;;;8.73;38.92;100418.38;343879;28;1341;-69
2022/03/24 00:13:48;;;;;;;360.38;114.95;;;;;;;8.77;38.81;100419.19;342611;28;1133;-68
2022/03/24 00:13:59;;;;;;;360.13;115.93;;;;;;;8.75;39.02;100424.44;343820;28;1393;-68
2022/03/24 00:14:09;;;;;;;360.37;118.57;;;;;;;8.74;39.32;100419.25;341535;28;1679;-68
2022/03/24 00:14:19;;;;;;;360.38;118.78;;;;;;;8.74;38.91;100416.63;342454;28;1694;-69
2022/03/24 00:14:30;;;;;;;357.47;113.77;;;;;;;8.74;38.63;100425.31;344307;28;1643;-68
2022/03/24 00:14:40;;;;;;;356.45;110.95;;;;;;;8.75;38.40;100416.59;345257;28;1001;-68
2022/03/24 00:14:50;;;;;;;357.80;112.67;;;;;;;8.77;39.15;100419.19;345381;28;913;-68
2022/03/24 00:15:03;;;;;;;359.17;115.53;;;;;;;8.73;39.05;100423.59;343987;28;917;-67
2022/03/24 00:15:14;;;;;;;359.00;116.35;;;;;;;8.75;38.65;100416.59;346377;28;1410;-68
2022/03/24 00:15:25;;;;;;;358.38;116.70;;;;;;;8.75;38.73;100414.00;345237;28;960;-68
2022/03/24 00:15:36;;;;;;;358.05;113.50;;;;;;;8.75;38.67;100415.75;342530;28;896;-68
2022/03/24 00:15:46;;;;;;;358.47;114.67;;;;;;;8.77;38.62;100417.44;342387;28;1011;-68
2022/03/24 00:15:58;;;;;;;357.52;113.68;;;;;;;8.77;38.84;100417.44;345076;28;1661;-68
2022/03/24 00:16:08;;;;;;;355.52;114.38;;;;;;;8.78;38.65;100424.38;343893;28;1962;-68
2022/03/24 00:16:19;;;;;;;355.02;114.00;;;;;;;8.76;38.56;100417.47;343997;28;984;-68
2022/03/24 00:16:30;;;;;;;356.63;114.43;;;;;;;8.78;39.01;100421.78;342619;28;874;-68
2022/03/24 00:16:40;;;;;;;358.88;115.60;;;;;;;8.78;38.54;100421.78;339977;29;956;-68
2022/03/24 00:16:50;;;;;;;361.87;117.27;;;;;;;8.77;38.66;100420.03;342587;28;1192;-68
2022/03/24 00:17:01;;;;;;;361.37;116.73;;;;;;;8.77;38.94;100420.03;342621;28;1027;-68
2022/03/24 00:17:12;;;;;;;358.75;113.03;;;;;;;8.78;38.87;100420.91;343960;28;848;-68
2022/03/24 00:17:22;;;;;;;353.73;107.67;;;;;;;8.79;38.96;100425.22;343815;28;931;-68
2022/03/24 00:17:33;;;;;;;352.93;108.97;;;;;;;8.78;38.83;100416.53;341285;29;848;-68
2022/03/24 00:17:44;;;;;;;354.23;108.53;;;;;;;8.78;39.00;100419.16;342015;28;1855;-68
2022/03/24 00:17:54;;;;;;;358.15;111.65;;;;;;;8.78;38.58;100427.00;342590;28;988;-68
2022/03/24 00:18:05;;;;;;;359.80;112.90;;;;;;;8.77;38.55;100425.25;343959;28;911;-68
2022/03/24 00:18:16;;;;;;;360.67;117.00;;;;;;;8.75;39.16;100421.81;339915;29;1320;-68
2022/03/24 00:18:29;;;;;;;359.52;117.15;;;;;;;8.77;38.49;100424.41;341210;29;1150;-68
2022/03/24 00:18:40;;;;;;;359.05;116.57;;;;;;;8.73;39.01;100421.00;340138;29;1635;-68
2022/03/24 00:18:50;;;;;;;357.17;113.38;;;;;;;8.74;38.86;100421.84;342478;28;1487;-68
2022/03/24 00:19:01;;;;;;;356.63;112.50;;;;;;;8.71;38.85;100420.16;341282;29;819;-68
2022/03/24 00:19:11;;;;;;;355.40;110.18;;;;;;;8.70;38.85;100417.59;341276;29;822;-68
2022/03/24 00:19:22;;;;;;;353.43;107.63;;;;;;;8.69;39.03;100416.72;340929;28;1656;-68
2022/03/24 00:19:33;;;;;;;355.55;110.28;;;;;;;8.71;39.06;100419.31;345219;28;1248;-68
2022/03/24 00:19:43;;;;;;;358.33;112.80;;;;;;;8.70;38.91;100423.66;344573;28;1223;-68
2022/03/24 00:19:53;;;;;;;358.80;112.53;;;;;;;8.71;39.05;100422.78;342587;28;976;-68
2022/03/24 00:20:04;;;;;;;357.45;112.07;;;;;;;8.72;38.81;100421.88;341179;29;1206;-68
2022/03/24 00:20:15;;;;;;;355.97;109.50;;;;;;;8.72;38.67;100421.88;341198;29;945;-68
2022/03/24 00:20:25;;;;;;;356.63;113.13;;;;;;;8.72;39.12;100421.88;343912;28;1007;-68
2022/03/24 00:20:36;;;;;;;354.80;111.47;;;;;;;8.73;38.67;100418.38;343939;28;859;-68
2022/03/24 00:20:46;;;;;;;357.73;114.37;;;;;;;8.71;39.24;100417.56;343698;28;1932;-68
2022/03/24 00:20:57;;;;;;;359.27;114.70;;;;;;;8.72;38.63;100418.41;341084;28;1655;-68
2022/03/24 00:21:08;;;;;;;359.67;115.15;;;;;;;8.70;39.09;100418.44;343799;28;1980;-68
2022/03/24 00:21:19;;;;;;;357.80;114.10;;;;;;;8.67;38.98;100416.75;342506;28;865;-68
2022/03/24 00:21:29;;;;;;;357.42;111.45;;;;;;;8.66;39.17;100415.03;343993;28;901;-68
2022/03/24 00:21:40;;;;;;;358.33;113.83;;;;;;;8.67;39.16;100418.50;342592;28;802;-68
2022/03/24 00:21:50;;;;;;;359.43;113.10;;;;;;;8.65;39.22;100420.31;342542;28;976;-68
2022/03/24 00:22:00;;;;;;;360.17;115.53;;;;;;;8.67;39.27;100413.28;339965;29;852;-67
2022/03/24 00:22:11;;;;;;;359.20;114.20;;;;;;;8.66;39.05;100422.88;341152;28;1659;-67
2022/03/24 00:22:21;;;;;;;357.97;116.60;;;;;;;8.66;38.87;100416.81;342076;28;2224;-67
2022/03/24 00:22:32;;;;;;;358.07;117.00;;;;;;;8.65;38.98;100415.09;342646;28;1008;-67
2022/03/24 00:22:42;;;;;;;358.83;119.35;;;;;;;8.65;39.29;100420.31;342223;28;1797;-67
2022/03/24 00:22:53;;;;;;;360.13;120.60;;;;;;;8.64;39.37;100419.47;342520;28;1339;-67
2022/03/24 00:23:03;;;;;;;359.20;119.80;;;;;;;8.64;39.77;100418.59;342647;28;976;-67
2022/03/24 00:23:14;;;;;;;360.30;118.80;;;;;;;8.64;39.39;100416.84;342261;28;1808;-67
2022/03/24 00:23:24;;;;;;;358.90;117.63;;;;;;;8.64;39.03;100421.22;342129;28;1702;-67
2022/03/24 00:23:35;;;;;;;358.08;116.13;;;;;;;8.66;39.11;100422.03;343997;28;2678;-67
2022/03/24 00:23:45;;;;;;;353.90;111.57;;;;;;;8.66;39.34;100422.88;343854;28;1740;-67
2022/03/24 00:23:55;;;;;;;356.52;112.22;;;;;;;8.66;39.25;100419.44;343847;28;1360;-67
2022/03/24 00:24:08;;;;;;;358.40;115.23;;;;;;;8.68;39.45;100425.44;342847;28;1744;-67
2022/03/24 00:24:19;;;;;;;359.52;117.53;;;;;;;8.68;39.31;100415.00;343833;28;1363;-67
2022/03/24 00:24:29;;;;;;;358.55;116.38;;;;;;;8.67;39.53;100418.50;339868;28;1286;-67
2022/03/24 00:24:42;;;;;;;359.93;114.87;;;;;;;8.67;39.24;100418.50;341235;29;1071;-67
2022/03/24 00:24:52;;;;;;;362.77;120.18;;;;;;;8.68;39.41;100420.22;341193;29;1915;-67
2022/03/24 00:25:03;;;;;;;361.90;120.43;;;;;;;8.66;39.18;100411.59;342666;28;1233;-67
2022/03/24 00:25:13;;;;;;;358.08;116.28;;;;;;;8.67;39.01;100413.28;342531;28;889;-67
2022/03/24 00:25:24;;;;;;;356.95;113.95;;;;;;;8.66;39.50;100411.59;340949;29;1808;-67
2022/03/24 00:25:34;;;;;;;355.40;111.57;;;;;;;8.65;39.16;100413.34;343827;28;1845;-67
2022/03/24 00:25:45;;;;;;;355.50;114.25;;;;;;;8.64;39.24;100411.63;343921;28;1088;-67
2022/03/24 00:25:55;;;;;;;356.17;114.70;;;;;;;8.61;39.32;100410.84;342601;28;846;-67
2022/03/24 00:26:05;;;;;;;356.90;117.03;;;;;;;8.59;39.08;100417.84;343765;28;1858;-67
2022/03/24 00:26:16;;;;;;;356.80;115.40;;;;;;;8.58;39.61;100413.50;341189;29;1239;-67
2022/03/24 00:26:26;;;;;;;354.95;113.25;;;;;;;8.56;39.44;100410.94;341287;29;929;-67
2022/03/24 00:26:37;;;;;;;353.77;112.00;;;;;;;8.57;39.68;100417.00;341196;29;954;-67
2022/03/24 00:26:47;;;;;;;353.27;111.22;;;;;;;8.56;39.31;100405.72;342521;28;1378;-67
2022/03/24 00:26:58;;;;;;;355.30;110.90;;;;;;;8.58;39.43;100413.50;342655;28;917;-67
2022/03/24 00:27:09;;;;;;;355.80;111.00;;;;;;;8.58;39.48;100408.28;343569;28;1616;-67
2022/03/24 00:27:19;;;;;;;356.15;110.00;;;;;;;8.59;39.43;100407.41;345176;28;1011;-69
2022/03/24 00:27:30;;;;;;;353.87;107.90;;;;;;;8.60;39.47;100411.72;342532;28;1371;-69
2022/03/24 00:27:40;;;;;;;354.00;107.70;;;;;;;8.60;39.25;100406.50;343904;28;872;-69
2022/03/24 00:27:50;;;;;;;354.10;110.30;;;;;;;8.58;39.62;100411.75;342476;28;1324;-69
2022/03/24 00:28:01;;;;;;;356.65;113.65;;;;;;;8.58;39.49;100405.69;342597;28;990;-68
2022/03/24 00:28:11;;;;;;;356.47;114.80;;;;;;;8.57;39.65;100407.44;341170;29;923;-68
2022/03/24 00:28:22;;;;;;;354.75;114.18;;;;;;;8.55;38.97;100406.59;340578;28;2384;-68
2022/03/24 00:28:32;;;;;;;354.20;114.60;;;;;;;8.54;39.41;100410.09;341157;28;1590;-68
2022/03/24 00:28:43;;;;;;;352.63;112.93;;;;;;;8.54;39.54;100406.63;343752;28;1386;-68
2022/03/24 00:28:54;;;;;;;355.10;115.50;;;;;;;8.55;39.29;100409.22;345083;28;1717;-68
2022/03/24 00:29:04;;;;;;;354.10;113.13;;;;;;;8.55;39.53;100408.34;345424;28;833;-68
2022/03/24 00:29:14;;;;;;;355.02;112.47;;;;;;;8.55;39.20;100410.97;344008;28;1114;-68
2022/03/24 00:29:25;;;;;;;352.73;107.83;;;;;;;8.55;39.50;100403.13;342316;28;1379;-67
2022/03/24 00:29:35;;;;;;;353.95;108.80;;;;;;;8.55;39.80;100408.34;345275;28;1189;-69
2022/03/24 00:29:46;;;;;;;356.43;112.03;;;;;;;8.55;39.25;100396.16;342457;28;1288;-68
2022/03/24 00:29:56;;;;;;;356.90;113.90;;;;;;;8.57;39.78;100407.44;346661;28;951;-68
2022/03/24 00:30:08;;;;;;;357.20;112.80;;;;;;;8.59;39.42;100405.66;342524;28;830;-68
2022/03/24 00:30:18;;;;;;;354.65;110.70;;;;;;;8.61;39.50;100406.47;344535;28;1628;-68
2022/03/24 00:30:29;;;;;;;357.63;114.07;;;;;;;8.61;39.15;100403.88;342378;28;1751;-68
2022/03/24 00:30:39;;;;;;;355.02;112.28;;;;;;;8.62;39.04;100402.97;343842;28;1227;-68
2022/03/24 00:30:50;;;;;;;355.08;112.80;;;;;;;8.62;39.17;100405.59;342537;28;1201;-68
2022/03/24 00:31:01;;;;;;;353.30;110.67;;;;;;;8.61;39.48;100408.22;341911;28;2068;-68
2022/03/24 00:31:11;;;;;;;354.35;113.85;;;;;;;8.61;39.46;100405.63;343925;28;901;-68
2022/03/24 00:31:21;;;;;;;352.25;111.75;;;;;;;8.61;39.62;100408.22;346544;28;972;-68
2022/03/24 00:31:32;;;;;;;351.83;111.37;;;;;;;8.59;39.19;100410.00;345176;28;1180;-68
2022/03/24 00:31:42;;;;;;;351.52;110.47;;;;;;;8.59;39.57;100407.41;345279;28;944;-68
2022/03/24 00:31:53;;;;;;;351.50;108.87;;;;;;;8.59;39.37;100404.78;347135;28;1759;-68
2022/03/24 00:32:04;;;;;;;351.83;108.50;;;;;;;8.57;39.43;100406.56;346433;28;1764;-68
2022/03/24 00:32:14;;;;;;;350.98;106.32;;;;;;;8.54;39.65;100409.22;343885;28;1219;-68
2022/03/24 00:32:25;;;;;;;352.37;107.10;;;;;;;8.52;39.69;100403.19;345277;28;877;-68
2022/03/24 00:32:38;;;;;;;353.73;107.72;;;;;;;8.51;39.88;100404.06;343806;28;1224;-68
2022/03/24 00:32:48;;;;;;;353.13;110.07;;;;;;;8.50;39.72;100405.81;343870;28;1081;-67
2022/03/24 00:32:58;;;;;;;350.80;106.93;;;;;;;8.49;39.92;100408.47;343864;28;890;-68
2022/03/24 00:33:10;;;;;;;351.40;106.72;;;;;;;8.49;39.98;100408.47;340602;29;2160;-67
2022/03/24 00:33:20;;;;;;;350.55;105.60;;;;;;;8.48;39.30;100407.59;341022;29;1588;-68
2022/03/24 00:33:32;;;;;;;348.60;107.18;;;;;;;8.46;39.55;100405.91;339868;29;1269;-68
2022/03/24 00:33:42;;;;;;;352.02;110.93;;;;;;;8.44;39.56;100412.91;341922;28;1755;-68
2022/03/24 00:33:53;;;;;;;354.00;112.28;;;;;;;8.44;39.56;100405.94;343688;28;1777;-68
2022/03/24 00:34:03;;;;;;;353.63;110.65;;;;;;;8.45;39.53;100401.59;343856;28;1355;-68
2022/03/24 00:34:14;;;;;;;349.97;108.87;;;;;;;8.43;39.91;100400.75;342513;28;1312;-68
2022/03/24 00:34:24;;;;;;;347.83;105.28;;;;;;;8.44;39.40;100399.88;342516;28;930;-68
2022/03/24 00:34:35;;;;;;;347.87;105.97;;;;;;;8.43;39.89;100399.00;341370;29;901;-68
2022/03/24 00:34:46;;;;;;;351.40;109.65;;;;;;;8.44;39.44;100402.47;341288;29;1121;-68
2022/03/24 00:34:56;;;;;;;354.70;115.55;;;;;;;8.43;39.50;100409.44;342618;28;857;-68
2022/03/24 00:35:08;;;;;;;358.13;118.97;;;;;;;8.42;39.56;100401.63;342637;28;840;-68
2022/03/24 00:35:18;;;;;;;354.67;114.65;;;;;;;8.42;39.62;100396.44;339913;29;915;-68
2022/03/24 00:35:29;;;;;;;352.80;113.00;;;;;;;8.42;39.60;100399.03;341872;28;1773;-68
2022/03/24 00:35:39;;;;;;;352.93;115.20;;;;;;;8.42;39.57;100401.63;342553;28;892;-68
2022/03/24 00:35:50;;;;;;;355.27;117.15;;;;;;;8.42;39.43;100396.44;345285;28;973;-68
2022/03/24 00:36:01;;;;;;;355.08;116.40;;;;;;;8.42;39.56;100399.03;345214;28;1402;-68
2022/03/24 00:36:11;;;;;;;352.23;112.37;;;;;;;8.38;39.60;100398.22;345329;28;934;-68
2022/03/24 00:36:22;;;;;;;350.90;111.65;;;;;;;8.38;39.32;100399.97;343801;28;1393;-68
2022/03/24 00:36:33;;;;;;;352.52;112.40;;;;;;;8.37;39.84;100393.91;342538;28;994;-68
2022/03/24 00:36:43;;;;;;;357.13;117.40;;;;;;;8.37;40.10;100393.91;343921;28;893;-68
2022/03/24 00:36:54;;;;;;;355.90;114.80;;;;;;;8.37;39.70;100399.13;345213;28;1482;-68
2022/03/24 00:37:04;;;;;;;355.05;113.50;;;;;;;8.38;39.73;100394.75;342552;28;1785;-67
2022/03/24 00:37:15;;;;;;;351.57;108.53;;;;;;;8.36;39.87;100396.53;343933;28;1085;-67
2022/03/24 00:37:25;;;;;;;353.23;111.93;;;;;;;8.32;39.80;100391.38;341043;29;1408;-67
2022/03/24 00:37:36;;;;;;;353.83;113.37;;;;;;;8.32;39.80;100396.59;341217;29;985;-67
2022/03/24 00:37:46;;;;;;;354.30;114.38;;;;;;;8.33;40.19;100400.94;341035;28;1239;-67
2022/03/24 00:37:57;;;;;;;354.85;112.90;;;;;;;8.34;40.20;100394.81;340642;29;2475;-67
2022/03/24 00:38:07;;;;;;;352.23;109.63;;;;;;;8.36;39.89;100393.94;342409;28;1589;-67
2022/03/24 00:38:18;;;;;;;351.75;108.18;;;;;;;8.37;40.32;100399.13;342459;28;1345;-67
2022/03/24 00:38:29;;;;;;;352.03;108.47;;;;;;;8.39;40.04;100391.28;342513;28;1125;-67
2022/03/24 00:38:40;;;;;;;352.02;109.65;;;;;;;8.39;40.00;100386.91;342553;28;960;-67
2022/03/24 00:38:52;;;;;;;350.85;110.55;;;;;;;8.42;39.72;100396.44;342532;28;1909;-67
2022/03/24 00:39:03;;;;;;;350.50;110.82;;;;;;;8.42;39.95;100391.22;341240;29;928;-67
2022/03/24 00:39:14;;;;;;;351.95;110.30;;;;;;;8.41;39.96;100389.50;341212;29;920;-67
2022/03/24 00:39:24;;;;;;;353.87;111.80;;;;;;;8.41;40.05;100386.88;341155;29;869;-67
2022/03/24 00:39:34;;;;;;;354.80;113.82;;;;;;;8.42;40.03;100391.22;342558;28;889;-67
2022/03/24 00:39:45;;;;;;;355.77;113.47;;;;;;;8.43;39.99;100387.72;343744;28;1320;-67
2022/03/24 00:39:55;;;;;;;358.65;116.57;;;;;;;8.40;40.09;100395.59;345080;28;1545;-67
2022/03/24 00:40:07;;;;;;;357.27;113.07;;;;;;;8.40;40.33;100391.25;344760;28;1502;-67
2022/03/24 00:40:17;;;;;;;356.15;111.10;;;;;;;8.39;40.34;100384.31;345205;28;879;-67
2022/03/24 00:40:28;;;;;;;352.17;107.63;;;;;;;8.40;40.15;100387.78;342617;28;1751;-67
2022/03/24 00:40:38;;;;;;;350.92;107.80;;;;;;;8.41;40.40;100386.88;342622;28;915;-67
2022/03/24 00:40:49;;;;;;;352.08;109.55;;;;;;;8.42;40.05;100396.44;345146;28;1275;-67
2022/03/24 00:41:01;;;;;;;356.67;114.40;;;;;;;8.43;39.89;100390.31;343886;28;1026;-67
2022/03/24 00:41:12;;;;;;;359.33;115.60;;;;;;;8.44;40.10;100392.03;342594;28;1431;-67
2022/03/24 00:41:23;;;;;;;356.75;113.05;;;;;;;8.43;39.97;100377.28;341102;29;1367;-67
2022/03/24 00:41:35;;;;;;;355.93;112.83;;;;;;;8.44;40.13;100389.44;342557;28;2066;-67
2022/03/24 00:41:45;;;;;;;354.15;113.75;;;;;;;8.41;40.19;100389.50;343896;28;916;-67
2022/03/24 00:41:56;;;;;;;353.00;114.53;;;;;;;8.39;40.29;100381.69;343867;28;1000;-67
2022/03/24 00:42:12;;;;;;;351.60;112.10;;;;;;;8.42;40.22;100386.84;344570;28;1582;-67
2022/03/24 00:42:23;;;;;;;352.48;114.68;;;;;;;8.39;39.83;100381.69;345177;28;904;-67
2022/03/24 00:42:37;;;;;;;352.02;113.26;;;;;;;8.40;39.81;100385.16;343953;28;1123;-67
2022/03/24 00:42:47;;;;;;;354.05;111.45;;;;;;;8.40;40.09;100382.56;341885;28;2071;-67
2022/03/24 00:42:59;;;;;;;357.40;111.90;;;;;;;8.40;39.97;100380.81;341500;28;1672;-67
2022/03/24 00:43:10;;;;;;;356.73;112.00;;;;;;;8.40;39.86;100387.78;341224;29;1311;-67
2022/03/24 00:43:20;;;;;;;357.60;115.55;;;;;;;8.39;40.06;100386.06;343181;28;1519;-67
2022/03/24 00:43:31;;;;;;;354.85;112.05;;;;;;;8.37;39.87;100383.47;343798;28;1503;-67
2022/03/24 00:43:41;;;;;;;352.43;109.77;;;;;;;8.36;40.21;100383.50;343329;28;2052;-67
2022/03/24 00:43:51;;;;;;;350.42;109.25;;;;;;;8.36;39.94;100380.91;341311;28;1468;-67
2022/03/24 00:44:03;;;;;;;350.83;109.83;;;;;;;8.34;40.48;100388.75;341311;29;853;-67
2022/03/24 00:44:14;;;;;;;356.05;113.47;;;;;;;8.34;40.41;100384.38;342511;28;1000;-67
2022/03/24 00:44:24;;;;;;;359.33;115.23;;;;;;;8.34;40.45;100386.13;342513;28;948;-67
2022/03/24 00:44:35;;;;;;;359.05;114.85;;;;;;;8.33;40.24;100384.41;343849;28;1392;-67
2022/03/24 00:44:46;;;;;;;353.45;107.20;;;;;;;8.33;40.27;100387.03;342548;28;1633;-68
2022/03/24 00:44:57;;;;;;;353.90;106.20;;;;;;;8.35;39.94;100390.47;343796;28;1894;-68
2022/03/24 00:45:12;;;;;;;354.60;105.47;;;;;;;8.35;40.06;100387.84;343716;28;940;-68
2022/03/24 00:45:23;;;;;;;354.17;105.75;;;;;;;8.34;40.09;100379.19;343732;28;1354;-68
2022/03/24 00:45:33;;;;;;;353.42;106.25;;;;;;;8.33;40.49;100387.88;343849;28;1444;-68
2022/03/24 00:45:43;;;;;;;351.83;109.37;;;;;;;8.34;39.87;100383.53;342518;28;882;-68
2022/03/24 00:45:54;;;;;;;352.20;110.75;;;;;;;8.33;40.39;100384.41;345274;28;893;-68
2022/03/24 00:46:05;;;;;;;352.97;109.60;;;;;;;8.31;40.16;100383.56;345202;28;1391;-68
2022/03/24 00:46:16;;;;;;;353.23;110.10;;;;;;;8.27;40.46;100385.34;346665;28;897;-68
2022/03/24 00:46:27;;;;;;;353.63;107.30;;;;;;;8.27;40.62;100385.34;343884;28;945;-68
2022/03/24 00:46:37;;;;;;;352.77;104.47;;;;;;;8.25;40.66;100383.66;343871;28;862;-68
2022/03/24 00:46:47;;;;;;;353.77;103.70;;;;;;;8.24;40.55;100382.81;342481;28;1183;-68
2022/03/24 00:46:58;;;;;;;351.70;104.93;;;;;;;8.22;40.68;100383.75;345219;28;984;-68
2022/03/24 00:47:10;;;;;;;352.27;108.63;;;;;;;8.22;40.80;100384.63;341337;28;2066;-68
2022/03/24 00:47:21;;;;;;;352.42;109.88;;;;;;;8.21;40.62;100385.50;338437;29;1364;-68
2022/03/24 00:47:34;;;;;;;353.77;108.43;;;;;;;8.20;40.69;100377.72;341405;28;2280;-68
2022/03/24 00:47:44;;;;;;;353.50;108.57;;;;;;;8.15;40.73;100390.84;342486;28;1548;-68
2022/03/24 00:47:55;;;;;;;351.73;109.35;;;;;;;8.14;40.55;100381.28;342547;28;1174;-68
2022/03/24 00:48:06;;;;;;;352.10;109.80;;;;;;;8.15;41.10;100393.44;342397;28;1217;-68
2022/03/24 00:48:16;;;;;;;352.00;110.07;;;;;;;8.14;40.80;100389.13;341293;29;972;-68
2022/03/24 00:48:26;;;;;;;351.27;108.87;;;;;;;8.14;40.65;100386.50;341267;29;961;-68
2022/03/24 00:48:37;;;;;;;352.52;109.75;;;;;;;8.15;40.62;100393.44;342145;28;1203;-68
2022/03/24 00:48:48;;;;;;;354.07;108.67;;;;;;;8.13;41.14;100390.00;342995;28;1917;-68
2022/03/24 00:48:58;;;;;;;356.60;109.00;;;;;;;8.11;41.11;100391.78;342590;28;1031;-68
2022/03/24 00:49:09;;;;;;;354.73;107.15;;;;;;;8.10;40.46;100384.84;341182;28;1401;-68
2022/03/24 00:49:20;;;;;;;353.37;107.97;;;;;;;8.10;40.88;100379.63;342419;28;1159;-68
2022/03/24 00:49:31;;;;;;;354.17;111.40;;;;;;;8.12;41.10;100383.06;341261;29;1686;-68